sensor_id;sensor_type;location;lat;lon;timestamp;P1;durP1;ratioP1;P2;durP2;ratioP2
5630;SDS011;2837;50.990;7.124;2022-07-06T05:01:35;153.30;;;10.73;;
5630;SDS011;2837;50.990;7.124;2022-07-06T05:04:00;153.17;;;11.17;;
5630;SDS011;2837;50.990;7.124;2022-07-06T05:06:26;153.67;;;11.67;;
5630;SDS011;2837;50.990;7.124;2022-07-06T05:08:52;154.00;;;10.87;;
5630;SDS011;2837;50.990;7.124;2022-07-06T05:11:17;153.67;;;10.67;;
5630;SDS011;2837;50.990;7.124;2022-07-06T05:13:43;153.43;;;11.07;;
5630;SDS011;2837;50.990;7.124;2022-07-06T05:16:08;152.93;;;10.47;;
5630;SDS011;2837;50.990;7.124;2022-07-06T05:18:34;154.27;;;10.40;;
5630;SDS011;2837;50.990;7.124;2022-07-06T05:21:00;152.77;;;9.73;;
5630;SDS011;2837;50.990;7.124;2022-07-06T05:23:25;154.67;;;10.57;;
5630;SDS011;2837;50.990;7.124;2022-07-06T05:25:52;152.43;;;9.30;;
5630;SDS011;2837;50.990;7.124;2022-07-06T05:28:17;151.70;;;9.70;;
5630;SDS011;2837;50.990;7.124;2022-07-06T05:30:43;151.87;;;9.27;;
5630;SDS011;2837;50.990;7.124;2022-07-06T05:33:08;152.60;;;11.03;;
5630;SDS011;2837;50.990;7.124;2022-07-06T05:35:34;153.27;;;10.37;;
5630;SDS011;2837;50.990;7.124;2022-07-06T05:37:59;151.67;;;9.90;;
5630;SDS011;2837;50.990;7.124;2022-07-06T05:40:25;154.90;;;11.30;;
5630;SDS011;2837;50.990;7.124;2022-07-06T05:42:51;152.80;;;10.10;;
5630;SDS011;2837;50.990;7.124;2022-07-06T05:45:16;152.07;;;10.13;;
5630;SDS011;2837;50.990;7.124;2022-07-06T05:47:42;153.57;;;10.47;;
5630;SDS011;2837;50.990;7.124;2022-07-06T05:50:26;154.40;;;10.07;;
5630;SDS011;2837;50.990;7.124;2022-07-06T05:52:59;153.13;;;10.37;;
5630;SDS011;2837;50.990;7.124;2022-07-06T05:55:26;152.07;;;9.90;;
5630;SDS011;2837;50.990;7.124;2022-07-06T05:57:52;153.30;;;11.40;;
5630;SDS011;2837;50.990;7.124;2022-07-06T06:00:22;154.17;;;10.60;;
5630;SDS011;2837;50.990;7.124;2022-07-06T06:02:49;152.37;;;10.70;;
5630;SDS011;2837;50.990;7.124;2022-07-06T06:05:15;152.63;;;9.90;;
5630;SDS011;2837;50.990;7.124;2022-07-06T06:07:41;153.03;;;10.27;;
5630;SDS011;2837;50.990;7.124;2022-07-06T06:10:09;154.80;;;12.23;;
5630;SDS011;2837;50.990;7.124;2022-07-06T06:12:36;151.57;;;10.30;;
5630;SDS011;2837;50.990;7.124;2022-07-06T06:15:03;154.57;;;10.23;;
5630;SDS011;2837;50.990;7.124;2022-07-06T06:17:29;151.87;;;10.73;;
5630;SDS011;2837;50.990;7.124;2022-07-06T06:19:55;152.17;;;9.93;;
5630;SDS011;2837;50.990;7.124;2022-07-06T06:22:21;151.57;;;10.33;;
5630;SDS011;2837;50.990;7.124;2022-07-06T06:24:47;153.17;;;10.50;;
5630;SDS011;2837;50.990;7.124;2022-07-06T06:27:12;151.97;;;10.30;;
5630;SDS011;2837;50.990;7.124;2022-07-06T06:29:38;150.40;;;9.30;;
5630;SDS011;2837;50.990;7.124;2022-07-06T06:32:04;151.57;;;10.30;;
5630;SDS011;2837;50.990;7.124;2022-07-06T06:34:30;150.80;;;9.97;;
5630;SDS011;2837;50.990;7.124;2022-07-06T06:36:56;154.57;;;10.17;;
5630;SDS011;2837;50.990;7.124;2022-07-06T06:39:22;150.80;;;9.60;;
5630;SDS011;2837;50.990;7.124;2022-07-06T06:41:48;150.77;;;9.60;;
5630;SDS011;2837;50.990;7.124;2022-07-06T06:44:13;151.60;;;9.40;;
5630;SDS011;2837;50.990;7.124;2022-07-06T06:46:39;156.27;;;9.60;;
5630;SDS011;2837;50.990;7.124;2022-07-06T06:49:05;151.50;;;9.53;;
5630;SDS011;2837;50.990;7.124;2022-07-06T06:51:31;149.90;;;9.47;;
5630;SDS011;2837;50.990;7.124;2022-07-06T06:53:57;151.73;;;9.73;;
5630;SDS011;2837;50.990;7.124;2022-07-06T06:56:23;151.67;;;9.80;;
5630;SDS011;2837;50.990;7.124;2022-07-06T06:58:49;150.70;;;10.03;;
5630;SDS011;2837;50.990;7.124;2022-07-06T07:01:14;152.47;;;10.77;;
5630;SDS011;2837;50.990;7.124;2022-07-06T07:03:40;150.87;;;9.60;;
5630;SDS011;2837;50.990;7.124;2022-07-06T07:06:06;151.87;;;10.70;;
5630;SDS011;2837;50.990;7.124;2022-07-06T07:08:31;154.17;;;9.60;;
5630;SDS011;2837;50.990;7.124;2022-07-06T07:10:57;151.03;;;9.10;;
5630;SDS011;2837;50.990;7.124;2022-07-06T07:13:23;152.10;;;9.23;;
5630;SDS011;2837;50.990;7.124;2022-07-06T07:15:48;151.23;;;9.40;;
5630;SDS011;2837;50.990;7.124;2022-07-06T07:18:14;151.67;;;8.40;;
5630;SDS011;2837;50.990;7.124;2022-07-06T07:20:39;151.07;;;9.60;;
5630;SDS011;2837;50.990;7.124;2022-07-06T07:23:05;152.37;;;8.83;;
5630;SDS011;2837;50.990;7.124;2022-07-06T07:25:30;149.07;;;8.47;;
5630;SDS011;2837;50.990;7.124;2022-07-06T07:27:56;150.37;;;8.40;;
5630;SDS011;2837;50.990;7.124;2022-07-06T07:30:22;150.57;;;8.67;;
5630;SDS011;2837;50.990;7.124;2022-07-06T07:32:47;152.40;;;8.73;;
5630;SDS011;2837;50.990;7.124;2022-07-06T07:35:14;151.90;;;8.80;;
5630;SDS011;2837;50.990;7.124;2022-07-06T07:37:39;149.27;;;9.40;;
5630;SDS011;2837;50.990;7.124;2022-07-06T07:40:05;149.73;;;8.57;;
5630;SDS011;2837;50.990;7.124;2022-07-06T07:42:31;150.50;;;9.70;;
5630;SDS011;2837;50.990;7.124;2022-07-06T07:44:57;156.90;;;9.33;;
5630;SDS011;2837;50.990;7.124;2022-07-06T07:47:23;150.47;;;8.50;;
5630;SDS011;2837;50.990;7.124;2022-07-06T07:49:49;150.97;;;8.67;;
5630;SDS011;2837;50.990;7.124;2022-07-06T07:52:14;149.23;;;8.70;;
5630;SDS011;2837;50.990;7.124;2022-07-06T07:54:40;152.40;;;8.87;;
5630;SDS011;2837;50.990;7.124;2022-07-06T07:57:05;151.37;;;9.47;;
5630;SDS011;2837;50.990;7.124;2022-07-06T07:59:31;149.53;;;8.60;;
5630;SDS011;2837;50.990;7.124;2022-07-06T08:01:57;151.20;;;8.50;;
5630;SDS011;2837;50.990;7.124;2022-07-06T08:04:22;149.57;;;8.83;;
5630;SDS011;2837;50.990;7.124;2022-07-06T08:06:48;150.67;;;8.50;;
5630;SDS011;2837;50.990;7.124;2022-07-06T08:09:13;149.13;;;8.40;;
5630;SDS011;2837;50.990;7.124;2022-07-06T08:11:40;150.10;;;8.97;;
5630;SDS011;2837;50.990;7.124;2022-07-06T08:14:06;149.07;;;9.00;;
5630;SDS011;2837;50.990;7.124;2022-07-06T08:16:31;148.63;;;8.33;;
5630;SDS011;2837;50.990;7.124;2022-07-06T08:18:57;151.37;;;8.90;;
5630;SDS011;2837;50.990;7.124;2022-07-06T08:21:23;149.60;;;8.37;;
5630;SDS011;2837;50.990;7.124;2022-07-06T08:23:49;151.50;;;8.20;;
5630;SDS011;2837;50.990;7.124;2022-07-06T08:26:15;148.07;;;7.50;;
5630;SDS011;2837;50.990;7.124;2022-07-06T08:28:40;148.53;;;8.50;;
5630;SDS011;2837;50.990;7.124;2022-07-06T08:31:06;148.40;;;8.87;;
5630;SDS011;2837;50.990;7.124;2022-07-06T08:33:31;153.30;;;8.80;;
5630;SDS011;2837;50.990;7.124;2022-07-06T08:35:57;154.60;;;8.77;;
5630;SDS011;2837;50.990;7.124;2022-07-06T08:38:23;154.63;;;8.47;;
5630;SDS011;2837;50.990;7.124;2022-07-06T08:40:49;148.17;;;8.13;;
5630;SDS011;2837;50.990;7.124;2022-07-06T08:43:16;149.00;;;9.10;;
5630;SDS011;2837;50.990;7.124;2022-07-06T08:45:42;149.97;;;8.53;;
5630;SDS011;2837;50.990;7.124;2022-07-06T08:48:10;154.40;;;8.30;;
5630;SDS011;2837;50.990;7.124;2022-07-06T08:50:36;149.00;;;8.87;;
5630;SDS011;2837;50.990;7.124;2022-07-06T08:53:02;148.67;;;8.70;;
5630;SDS011;2837;50.990;7.124;2022-07-06T08:55:29;148.70;;;8.97;;
5630;SDS011;2837;50.990;7.124;2022-07-06T08:57:55;148.00;;;8.00;;
5630;SDS011;2837;50.990;7.124;2022-07-06T09:00:22;150.37;;;9.43;;
5630;SDS011;2837;50.990;7.124;2022-07-06T09:02:52;147.87;;;8.57;;
5630;SDS011;2837;50.990;7.124;2022-07-06T09:05:22;147.50;;;8.00;;
5630;SDS011;2837;50.990;7.124;2022-07-06T09:07:52;149.40;;;8.60;;
5630;SDS011;2837;50.990;7.124;2022-07-06T09:10:18;147.37;;;8.00;;
5630;SDS011;2837;50.990;7.124;2022-07-06T09:12:46;146.87;;;8.07;;
5630;SDS011;2837;50.990;7.124;2022-07-06T09:15:11;147.10;;;7.67;;
5630;SDS011;2837;50.990;7.124;2022-07-06T09:17:38;147.10;;;8.53;;
5630;SDS011;2837;50.990;7.124;2022-07-06T09:20:06;148.63;;;8.60;;
5630;SDS011;2837;50.990;7.124;2022-07-06T09:22:37;148.30;;;8.40;;
5630;SDS011;2837;50.990;7.124;2022-07-06T09:25:09;147.07;;;8.53;;
5630;SDS011;2837;50.990;7.124;2022-07-06T09:27:44;146.87;;;8.13;;
5630;SDS011;2837;50.990;7.124;2022-07-06T09:30:13;147.80;;;8.63;;
5630;SDS011;2837;50.990;7.124;2022-07-06T09:32:43;148.07;;;8.50;;
5630;SDS011;2837;50.990;7.124;2022-07-06T09:35:22;147.97;;;8.77;;
5630;SDS011;2837;50.990;7.124;2022-07-06T09:40:37;146.40;;;7.43;;
5630;SDS011;2837;50.990;7.124;2022-07-06T09:43:08;147.40;;;8.30;;
5630;SDS011;2837;50.990;7.124;2022-07-06T09:45:37;147.47;;;8.33;;
5630;SDS011;2837;50.990;7.124;2022-07-06T09:48:11;147.97;;;8.70;;
5630;SDS011;2837;50.990;7.124;2022-07-06T09:50:40;147.60;;;8.70;;
5630;SDS011;2837;50.990;7.124;2022-07-06T09:53:08;151.80;;;7.73;;
5630;SDS011;2837;50.990;7.124;2022-07-06T09:55:35;146.77;;;7.93;;
5630;SDS011;2837;50.990;7.124;2022-07-06T09:58:00;148.30;;;8.70;;
5630;SDS011;2837;50.990;7.124;2022-07-06T10:00:27;147.60;;;8.73;;
5630;SDS011;2837;50.990;7.124;2022-07-06T10:02:53;147.60;;;8.80;;
5630;SDS011;2837;50.990;7.124;2022-07-06T10:05:19;148.13;;;8.53;;
5630;SDS011;2837;50.990;7.124;2022-07-06T10:07:52;150.63;;;8.70;;
5630;SDS011;2837;50.990;7.124;2022-07-06T10:10:20;146.87;;;8.73;;
5630;SDS011;2837;50.990;7.124;2022-07-06T10:12:48;148.17;;;8.03;;
5630;SDS011;2837;50.990;7.124;2022-07-06T10:15:15;146.97;;;8.70;;
5630;SDS011;2837;50.990;7.124;2022-07-06T10:17:43;148.67;;;8.53;;
5630;SDS011;2837;50.990;7.124;2022-07-06T10:20:11;146.87;;;8.83;;
5630;SDS011;2837;50.990;7.124;2022-07-06T10:22:37;146.37;;;7.90;;
5630;SDS011;2837;50.990;7.124;2022-07-06T10:25:05;146.53;;;8.23;;
5630;SDS011;2837;50.990;7.124;2022-07-06T10:27:32;147.27;;;8.67;;
5630;SDS011;2837;50.990;7.124;2022-07-06T10:29:58;148.27;;;8.23;;
5630;SDS011;2837;50.990;7.124;2022-07-06T10:32:23;150.63;;;8.63;;
5630;SDS011;2837;50.990;7.124;2022-07-06T10:34:50;147.83;;;9.13;;
5630;SDS011;2837;50.990;7.124;2022-07-06T10:37:25;148.30;;;8.80;;
5630;SDS011;2837;50.990;7.124;2022-07-06T10:39:52;148.50;;;8.10;;
5630;SDS011;2837;50.990;7.124;2022-07-06T10:42:43;147.70;;;8.90;;
5630;SDS011;2837;50.990;7.124;2022-07-06T10:45:11;148.77;;;8.23;;
5630;SDS011;2837;50.990;7.124;2022-07-06T10:47:45;148.27;;;8.60;;
5630;SDS011;2837;50.990;7.124;2022-07-06T10:50:11;148.50;;;8.63;;
5630;SDS011;2837;50.990;7.124;2022-07-06T10:52:47;147.10;;;8.70;;
5630;SDS011;2837;50.990;7.124;2022-07-06T10:55:30;148.27;;;9.37;;
5630;SDS011;2837;50.990;7.124;2022-07-06T10:57:57;150.10;;;9.10;;
5630;SDS011;2837;50.990;7.124;2022-07-06T11:00:23;148.87;;;8.30;;
5630;SDS011;2837;50.990;7.124;2022-07-06T11:02:48;147.17;;;8.80;;
5630;SDS011;2837;50.990;7.124;2022-07-06T11:08:05;146.70;;;8.37;;
5630;SDS011;2837;50.990;7.124;2022-07-06T11:10:47;146.50;;;8.40;;
5630;SDS011;2837;50.990;7.124;2022-07-06T11:13:25;147.07;;;8.53;;
5630;SDS011;2837;50.990;7.124;2022-07-06T11:16:01;148.83;;;8.70;;
5630;SDS011;2837;50.990;7.124;2022-07-06T11:18:28;146.60;;;8.20;;
5630;SDS011;2837;50.990;7.124;2022-07-06T11:23:48;147.87;;;8.73;;
5630;SDS011;2837;50.990;7.124;2022-07-06T11:26:16;150.57;;;8.43;;
5630;SDS011;2837;50.990;7.124;2022-07-06T11:28:44;147.70;;;9.07;;
5630;SDS011;2837;50.990;7.124;2022-07-06T11:31:11;149.37;;;9.37;;
5630;SDS011;2837;50.990;7.124;2022-07-06T11:33:36;146.27;;;8.37;;
5630;SDS011;2837;50.990;7.124;2022-07-06T11:38:42;146.87;;;8.63;;
5630;SDS011;2837;50.990;7.124;2022-07-06T11:41:08;146.80;;;8.90;;
5630;SDS011;2837;50.990;7.124;2022-07-06T11:43:34;147.33;;;9.00;;
5630;SDS011;2837;50.990;7.124;2022-07-06T11:46:00;147.10;;;8.77;;
5630;SDS011;2837;50.990;7.124;2022-07-06T11:48:25;146.37;;;8.40;;
5630;SDS011;2837;50.990;7.124;2022-07-06T11:51:00;146.97;;;8.33;;
5630;SDS011;2837;50.990;7.124;2022-07-06T11:53:27;146.87;;;8.53;;
5630;SDS011;2837;50.990;7.124;2022-07-06T11:55:53;146.10;;;8.20;;
5630;SDS011;2837;50.990;7.124;2022-07-06T11:58:22;147.13;;;8.57;;
5630;SDS011;2837;50.990;7.124;2022-07-06T12:03:30;147.47;;;8.20;;
5630;SDS011;2837;50.990;7.124;2022-07-06T12:05:57;147.03;;;8.67;;
5630;SDS011;2837;50.990;7.124;2022-07-06T12:08:44;148.47;;;8.80;;
5630;SDS011;2837;50.990;7.124;2022-07-06T12:13:54;146.37;;;8.13;;
5630;SDS011;2837;50.990;7.124;2022-07-06T12:16:22;146.67;;;7.83;;
5630;SDS011;2837;50.990;7.124;2022-07-06T12:18:59;147.17;;;7.97;;
5630;SDS011;2837;50.990;7.124;2022-07-06T12:21:25;146.47;;;7.90;;
5630;SDS011;2837;50.990;7.124;2022-07-06T12:23:52;147.00;;;8.23;;
5630;SDS011;2837;50.990;7.124;2022-07-06T12:26:19;146.70;;;8.20;;
5630;SDS011;2837;50.990;7.124;2022-07-06T12:29:09;146.60;;;8.20;;
5630;SDS011;2837;50.990;7.124;2022-07-06T12:31:43;147.43;;;8.40;;
5630;SDS011;2837;50.990;7.124;2022-07-06T12:34:24;146.20;;;7.80;;
5630;SDS011;2837;50.990;7.124;2022-07-06T12:36:55;146.87;;;8.10;;
5630;SDS011;2837;50.990;7.124;2022-07-06T12:39:23;146.30;;;7.50;;
5630;SDS011;2837;50.990;7.124;2022-07-06T12:42:13;146.77;;;8.10;;
5630;SDS011;2837;50.990;7.124;2022-07-06T12:44:42;146.23;;;7.83;;
5630;SDS011;2837;50.990;7.124;2022-07-06T12:47:09;147.37;;;8.20;;
5630;SDS011;2837;50.990;7.124;2022-07-06T12:49:36;148.13;;;8.37;;
5630;SDS011;2837;50.990;7.124;2022-07-06T12:54:33;146.97;;;8.30;;
5630;SDS011;2837;50.990;7.124;2022-07-06T12:57:23;147.33;;;8.43;;
5630;SDS011;2837;50.990;7.124;2022-07-06T13:02:22;145.97;;;7.03;;
5630;SDS011;2837;50.990;7.124;2022-07-06T13:04:54;146.27;;;7.70;;
5630;SDS011;2837;50.990;7.124;2022-07-06T13:07:25;146.03;;;7.63;;
5630;SDS011;2837;50.990;7.124;2022-07-06T13:09:51;148.87;;;7.70;;
5630;SDS011;2837;50.990;7.124;2022-07-06T13:12:18;145.77;;;7.47;;
5630;SDS011;2837;50.990;7.124;2022-07-06T13:14:43;145.70;;;7.90;;
5630;SDS011;2837;50.990;7.124;2022-07-06T13:17:09;146.57;;;7.50;;
5630;SDS011;2837;50.990;7.124;2022-07-06T13:19:35;145.87;;;7.20;;
5630;SDS011;2837;50.990;7.124;2022-07-06T13:22:00;145.67;;;6.87;;
5630;SDS011;2837;50.990;7.124;2022-07-06T13:24:26;146.37;;;7.57;;
5630;SDS011;2837;50.990;7.124;2022-07-06T13:26:53;146.50;;;7.77;;
5630;SDS011;2837;50.990;7.124;2022-07-06T13:29:19;145.70;;;7.73;;
5630;SDS011;2837;50.990;7.124;2022-07-06T13:31:44;145.93;;;6.87;;
5630;SDS011;2837;50.990;7.124;2022-07-06T13:34:10;145.93;;;7.63;;
5630;SDS011;2837;50.990;7.124;2022-07-06T13:36:38;146.50;;;7.90;;
5630;SDS011;2837;50.990;7.124;2022-07-06T13:39:04;146.53;;;7.90;;
5630;SDS011;2837;50.990;7.124;2022-07-06T13:41:30;146.17;;;7.90;;
5630;SDS011;2837;50.990;7.124;2022-07-06T13:43:56;146.70;;;7.50;;
5630;SDS011;2837;50.990;7.124;2022-07-06T13:46:23;145.67;;;7.83;;
5630;SDS011;2837;50.990;7.124;2022-07-06T13:48:49;146.03;;;7.40;;
5630;SDS011;2837;50.990;7.124;2022-07-06T13:51:15;147.23;;;7.23;;
5630;SDS011;2837;50.990;7.124;2022-07-06T13:53:40;144.87;;;7.27;;
5630;SDS011;2837;50.990;7.124;2022-07-06T13:56:06;145.30;;;7.27;;
5630;SDS011;2837;50.990;7.124;2022-07-06T13:58:32;145.27;;;7.30;;
5630;SDS011;2837;50.990;7.124;2022-07-06T14:00:58;148.40;;;8.00;;
5630;SDS011;2837;50.990;7.124;2022-07-06T14:03:24;145.77;;;8.00;;
5630;SDS011;2837;50.990;7.124;2022-07-06T14:05:54;146.20;;;7.77;;
5630;SDS011;2837;50.990;7.124;2022-07-06T14:08:24;146.40;;;7.57;;
5630;SDS011;2837;50.990;7.124;2022-07-06T14:10:50;145.47;;;8.10;;
5630;SDS011;2837;50.990;7.124;2022-07-06T14:13:17;146.90;;;7.33;;
5630;SDS011;2837;50.990;7.124;2022-07-06T14:15:43;145.20;;;7.67;;
5630;SDS011;2837;50.990;7.124;2022-07-06T14:18:08;148.50;;;7.40;;
5630;SDS011;2837;50.990;7.124;2022-07-06T14:20:40;145.37;;;6.90;;
5630;SDS011;2837;50.990;7.124;2022-07-06T14:23:06;145.43;;;8.00;;
5630;SDS011;2837;50.990;7.124;2022-07-06T14:25:32;145.40;;;6.90;;
5630;SDS011;2837;50.990;7.124;2022-07-06T14:27:58;144.87;;;7.20;;
5630;SDS011;2837;50.990;7.124;2022-07-06T14:30:24;146.20;;;8.00;;
5630;SDS011;2837;50.990;7.124;2022-07-06T14:32:50;150.00;;;7.70;;
5630;SDS011;2837;50.990;7.124;2022-07-06T14:35:15;146.70;;;8.20;;
5630;SDS011;2837;50.990;7.124;2022-07-06T14:37:41;144.02;;;7.45;;
5630;SDS011;2837;50.990;7.124;2022-07-06T14:40:07;143.65;;;6.85;;
5630;SDS011;2837;50.990;7.124;2022-07-06T14:42:33;146.77;;;8.27;;
5630;SDS011;2837;50.990;7.124;2022-07-06T14:44:59;146.77;;;8.17;;
5630;SDS011;2837;50.990;7.124;2022-07-06T14:47:24;145.43;;;7.50;;
5630;SDS011;2837;50.990;7.124;2022-07-06T14:49:50;146.57;;;7.45;;
5630;SDS011;2837;50.990;7.124;2022-07-06T14:52:17;144.57;;;7.60;;
5630;SDS011;2837;50.990;7.124;2022-07-06T14:54:42;145.57;;;7.53;;
5630;SDS011;2837;50.990;7.124;2022-07-06T14:57:08;146.37;;;7.80;;
5630;SDS011;2837;50.990;7.124;2022-07-06T14:59:34;144.50;;;7.50;;
5630;SDS011;2837;50.990;7.124;2022-07-06T15:02:00;144.80;;;7.63;;
5630;SDS011;2837;50.990;7.124;2022-07-06T15:04:26;143.98;;;7.38;;
5630;SDS011;2837;50.990;7.124;2022-07-06T15:06:51;144.02;;;7.00;;
5630;SDS011;2837;50.990;7.124;2022-07-06T15:09:18;146.07;;;6.90;;
5630;SDS011;2837;50.990;7.124;2022-07-06T15:11:44;144.77;;;7.33;;
5630;SDS011;2837;50.990;7.124;2022-07-06T15:14:10;145.30;;;7.67;;
5630;SDS011;2837;50.990;7.124;2022-07-06T15:16:36;146.87;;;7.83;;
5630;SDS011;2837;50.990;7.124;2022-07-06T15:19:02;143.90;;;7.03;;
5630;SDS011;2837;50.990;7.124;2022-07-06T15:21:28;145.77;;;7.10;;
5630;SDS011;2837;50.990;7.124;2022-07-06T15:23:53;144.97;;;7.70;;
5630;SDS011;2837;50.990;7.124;2022-07-06T15:26:19;145.27;;;7.83;;
5630;SDS011;2837;50.990;7.124;2022-07-06T15:28:44;147.87;;;7.77;;
5630;SDS011;2837;50.990;7.124;2022-07-06T15:31:10;144.67;;;7.57;;
5630;SDS011;2837;50.990;7.124;2022-07-06T15:33:36;144.77;;;6.90;;
5630;SDS011;2837;50.990;7.124;2022-07-06T15:36:01;146.27;;;8.10;;
5630;SDS011;2837;50.990;7.124;2022-07-06T15:38:27;145.73;;;7.33;;
5630;SDS011;2837;50.990;7.124;2022-07-06T15:40:53;145.47;;;7.80;;
5630;SDS011;2837;50.990;7.124;2022-07-06T15:43:24;142.68;;;7.63;;
5630;SDS011;2837;50.990;7.124;2022-07-06T15:45:57;146.97;;;8.27;;
5630;SDS011;2837;50.990;7.124;2022-07-06T15:48:25;144.50;;;6.80;;
5630;SDS011;2837;50.990;7.124;2022-07-06T15:50:50;144.93;;;7.50;;
5630;SDS011;2837;50.990;7.124;2022-07-06T15:53:16;144.70;;;7.80;;
5630;SDS011;2837;50.990;7.124;2022-07-06T15:55:43;144.57;;;7.73;;
5630;SDS011;2837;50.990;7.124;2022-07-06T15:58:08;144.57;;;7.60;;
5630;SDS011;2837;50.990;7.124;2022-07-06T16:00:34;146.87;;;7.20;;
5630;SDS011;2837;50.990;7.124;2022-07-06T16:03:00;144.57;;;7.20;;
5630;SDS011;2837;50.990;7.124;2022-07-06T16:05:26;144.77;;;7.83;;
5630;SDS011;2837;50.990;7.124;2022-07-06T16:07:52;144.18;;;7.43;;
5630;SDS011;2837;50.990;7.124;2022-07-06T16:10:18;144.47;;;7.60;;
5630;SDS011;2837;50.990;7.124;2022-07-06T16:12:44;144.37;;;7.53;;
5630;SDS011;2837;50.990;7.124;2022-07-06T16:15:09;145.20;;;7.50;;
5630;SDS011;2837;50.990;7.124;2022-07-06T16:17:35;144.65;;;7.40;;
5630;SDS011;2837;50.990;7.124;2022-07-06T16:20:01;144.37;;;7.70;;
5630;SDS011;2837;50.990;7.124;2022-07-06T16:22:27;143.87;;;7.07;;
5630;SDS011;2837;50.990;7.124;2022-07-06T16:24:52;143.85;;;7.45;;
5630;SDS011;2837;50.990;7.124;2022-07-06T16:27:18;144.20;;;7.07;;
5630;SDS011;2837;50.990;7.124;2022-07-06T16:29:43;143.93;;;7.10;;
5630;SDS011;2837;50.990;7.124;2022-07-06T16:32:09;144.60;;;6.93;;
5630;SDS011;2837;50.990;7.124;2022-07-06T16:34:35;144.17;;;6.80;;
5630;SDS011;2837;50.990;7.124;2022-07-06T16:37:01;144.47;;;7.00;;
5630;SDS011;2837;50.990;7.124;2022-07-06T16:39:26;144.43;;;7.60;;
5630;SDS011;2837;50.990;7.124;2022-07-06T16:41:52;144.87;;;7.47;;
5630;SDS011;2837;50.990;7.124;2022-07-06T16:44:17;145.43;;;7.93;;
5630;SDS011;2837;50.990;7.124;2022-07-06T16:46:43;144.93;;;7.43;;
5630;SDS011;2837;50.990;7.124;2022-07-06T16:49:09;145.20;;;7.77;;
5630;SDS011;2837;50.990;7.124;2022-07-06T16:51:34;143.93;;;7.40;;
5630;SDS011;2837;50.990;7.124;2022-07-06T16:54:00;143.70;;;6.80;;
5630;SDS011;2837;50.990;7.124;2022-07-06T16:56:26;144.27;;;7.33;;
5630;SDS011;2837;50.990;7.124;2022-07-06T16:58:51;145.10;;;8.00;;
5630;SDS011;2837;50.990;7.124;2022-07-06T17:01:17;145.70;;;7.50;;
5630;SDS011;2837;50.990;7.124;2022-07-06T17:03:42;144.60;;;7.20;;
5630;SDS011;2837;50.990;7.124;2022-07-06T17:06:08;145.60;;;7.83;;
5630;SDS011;2837;50.990;7.124;2022-07-06T17:08:34;145.27;;;7.60;;
5630;SDS011;2837;50.990;7.124;2022-07-06T17:11:00;146.20;;;7.60;;
5630;SDS011;2837;50.990;7.124;2022-07-06T17:13:26;144.97;;;7.57;;
5630;SDS011;2837;50.990;7.124;2022-07-06T17:15:54;148.00;;;8.50;;
5630;SDS011;2837;50.990;7.124;2022-07-06T17:18:19;143.95;;;7.28;;
5630;SDS011;2837;50.990;7.124;2022-07-06T17:20:45;144.73;;;7.57;;
5630;SDS011;2837;50.990;7.124;2022-07-06T17:23:10;146.20;;;7.90;;
5630;SDS011;2837;50.990;7.124;2022-07-06T17:25:36;144.50;;;8.00;;
5630;SDS011;2837;50.990;7.124;2022-07-06T17:28:02;144.35;;;7.95;;
5630;SDS011;2837;50.990;7.124;2022-07-06T17:30:27;144.63;;;7.83;;
5630;SDS011;2837;50.990;7.124;2022-07-06T17:32:54;144.67;;;7.60;;
5630;SDS011;2837;50.990;7.124;2022-07-06T17:35:19;145.25;;;8.15;;
5630;SDS011;2837;50.990;7.124;2022-07-06T17:37:45;146.30;;;7.67;;
5630;SDS011;2837;50.990;7.124;2022-07-06T17:40:11;144.17;;;7.43;;
5630;SDS011;2837;50.990;7.124;2022-07-06T17:42:37;144.67;;;7.67;;
5630;SDS011;2837;50.990;7.124;2022-07-06T17:45:03;145.77;;;8.23;;
5630;SDS011;2837;50.990;7.124;2022-07-06T17:47:29;144.57;;;7.30;;
5630;SDS011;2837;50.990;7.124;2022-07-06T17:49:54;145.30;;;8.47;;
5630;SDS011;2837;50.990;7.124;2022-07-06T17:52:20;145.17;;;8.40;;
5630;SDS011;2837;50.990;7.124;2022-07-06T17:54:45;147.10;;;8.40;;
5630;SDS011;2837;50.990;7.124;2022-07-06T17:57:11;147.23;;;7.97;;
5630;SDS011;2837;50.990;7.124;2022-07-06T17:59:38;145.15;;;7.55;;
5630;SDS011;2837;50.990;7.124;2022-07-06T18:02:05;145.27;;;8.30;;
5630;SDS011;2837;50.990;7.124;2022-07-06T18:04:32;144.80;;;7.47;;
5630;SDS011;2837;50.990;7.124;2022-07-06T18:06:58;145.10;;;7.57;;
5630;SDS011;2837;50.990;7.124;2022-07-06T18:09:23;145.70;;;7.70;;
5630;SDS011;2837;50.990;7.124;2022-07-06T18:11:49;144.90;;;7.60;;
5630;SDS011;2837;50.990;7.124;2022-07-06T18:14:16;146.00;;;7.20;;
5630;SDS011;2837;50.990;7.124;2022-07-06T18:16:42;145.97;;;8.37;;
5630;SDS011;2837;50.990;7.124;2022-07-06T18:19:07;145.17;;;7.47;;
5630;SDS011;2837;50.990;7.124;2022-07-06T18:21:33;146.03;;;7.73;;
5630;SDS011;2837;50.990;7.124;2022-07-06T18:23:59;146.27;;;8.37;;
5630;SDS011;2837;50.990;7.124;2022-07-06T18:26:24;145.23;;;7.53;;
5630;SDS011;2837;50.990;7.124;2022-07-06T18:28:50;145.77;;;7.73;;
5630;SDS011;2837;50.990;7.124;2022-07-06T18:31:16;149.97;;;7.93;;
5630;SDS011;2837;50.990;7.124;2022-07-06T18:33:41;145.50;;;7.73;;
5630;SDS011;2837;50.990;7.124;2022-07-06T18:36:07;146.50;;;7.40;;
5630;SDS011;2837;50.990;7.124;2022-07-06T18:38:35;146.20;;;7.77;;
5630;SDS011;2837;50.990;7.124;2022-07-06T18:41:01;145.57;;;7.60;;
5630;SDS011;2837;50.990;7.124;2022-07-06T18:43:27;145.83;;;7.57;;
5630;SDS011;2837;50.990;7.124;2022-07-06T18:45:52;145.77;;;8.13;;
5630;SDS011;2837;50.990;7.124;2022-07-06T18:48:18;145.50;;;8.40;;
5630;SDS011;2837;50.990;7.124;2022-07-06T18:50:44;145.77;;;7.47;;
5630;SDS011;2837;50.990;7.124;2022-07-06T18:53:10;144.57;;;7.00;;
5630;SDS011;2837;50.990;7.124;2022-07-06T18:55:40;146.60;;;8.17;;
5630;SDS011;2837;50.990;7.124;2022-07-06T18:58:06;146.67;;;8.20;;
5630;SDS011;2837;50.990;7.124;2022-07-06T19:00:32;146.10;;;8.17;;
5630;SDS011;2837;50.990;7.124;2022-07-06T19:02:57;145.87;;;7.77;;
5630;SDS011;2837;50.990;7.124;2022-07-06T19:05:23;147.27;;;8.37;;
5630;SDS011;2837;50.990;7.124;2022-07-06T19:07:49;145.73;;;7.20;;
5630;SDS011;2837;50.990;7.124;2022-07-06T19:10:14;146.73;;;8.33;;
5630;SDS011;2837;50.990;7.124;2022-07-06T19:12:40;146.30;;;7.63;;
5630;SDS011;2837;50.990;7.124;2022-07-06T19:15:06;147.33;;;8.03;;
5630;SDS011;2837;50.990;7.124;2022-07-06T19:17:31;146.50;;;8.03;;
5630;SDS011;2837;50.990;7.124;2022-07-06T19:19:57;147.43;;;7.30;;
5630;SDS011;2837;50.990;7.124;2022-07-06T19:22:23;145.50;;;8.15;;
5630;SDS011;2837;50.990;7.124;2022-07-06T19:24:49;145.70;;;8.03;;
5630;SDS011;2837;50.990;7.124;2022-07-06T19:27:14;145.50;;;7.77;;
5630;SDS011;2837;50.990;7.124;2022-07-06T19:29:40;148.17;;;7.73;;
5630;SDS011;2837;50.990;7.124;2022-07-06T19:32:06;148.20;;;7.17;;
5630;SDS011;2837;50.990;7.124;2022-07-06T19:34:32;145.27;;;7.60;;
5630;SDS011;2837;50.990;7.124;2022-07-06T19:36:58;147.10;;;7.77;;
5630;SDS011;2837;50.990;7.124;2022-07-06T19:39:24;145.77;;;7.70;;
5630;SDS011;2837;50.990;7.124;2022-07-06T19:41:49;145.83;;;7.97;;
5630;SDS011;2837;50.990;7.124;2022-07-06T19:44:15;145.23;;;7.57;;
5630;SDS011;2837;50.990;7.124;2022-07-06T19:46:41;147.73;;;7.97;;
5630;SDS011;2837;50.990;7.124;2022-07-06T19:49:08;146.67;;;7.97;;
5630;SDS011;2837;50.990;7.124;2022-07-06T19:51:34;146.17;;;7.80;;
5630;SDS011;2837;50.990;7.124;2022-07-06T19:53:59;147.77;;;8.10;;
5630;SDS011;2837;50.990;7.124;2022-07-06T19:56:25;146.70;;;8.47;;
5630;SDS011;2837;50.990;7.124;2022-07-06T19:58:50;146.60;;;8.43;;
5630;SDS011;2837;50.990;7.124;2022-07-06T20:01:16;146.37;;;7.77;;
5630;SDS011;2837;50.990;7.124;2022-07-06T20:03:42;147.27;;;8.67;;
5630;SDS011;2837;50.990;7.124;2022-07-06T20:06:08;147.20;;;8.47;;